Rechercher aéroport 
image banner adimage banner adimage banner ad
image banner ad

11CL - Hansen

Situé à Adelanto, United States

ICAO - 11CL, IATA -

Données fournies par Airmate  

Information générale

Coordonnées: N34°37'48" W117°39'12"
Élévation : 2885 feet MSL.
Variation magnétique : 14° East
Voir autres Aéroports à California

Données opérationnelles

Special qualification required
Heure actuelle UTC:
Heure actuelle locale:
METAR: KVCV 262345Z AUTO 15010KT 10SM SCT085 32/10 A3000 RMK LTG DSNT NE
Voir NOTAMs / SUP AIP / TFR affectant cet aéroport [VIEW]
Fréquences de communication: [VIEW]

Pistes:

Identifiant RWYQFULongueur (ft)Largeur (ft)SurfaceLDA (ft)
07587580EARTH
25587580EARTH

Coordonnées de l'aéroport

Adresse: Adelanto United States

Vue satellite de 11CL